sensor_id;sensor_type;location;lat;lon;timestamp;P1;durP1;ratioP1;P2;durP2;ratioP2
3849;SDS011;1940;51.052;13.678;2022-12-16T00:01:17;44.73;;;19.70;;
3849;SDS011;1940;51.052;13.678;2022-12-16T00:03:47;42.93;;;19.10;;
3849;SDS011;1940;51.052;13.678;2022-12-16T00:06:14;48.20;;;20.07;;
3849;SDS011;1940;51.052;13.678;2022-12-16T00:08:40;50.20;;;19.80;;
3849;SDS011;1940;51.052;13.678;2022-12-16T00:11:05;47.10;;;19.37;;
3849;SDS011;1940;51.052;13.678;2022-12-16T00:13:32;44.00;;;20.07;;
3849;SDS011;1940;51.052;13.678;2022-12-16T00:16:02;47.33;;;20.17;;
3849;SDS011;1940;51.052;13.678;2022-12-16T00:18:29;49.37;;;20.30;;
3849;SDS011;1940;51.052;13.678;2022-12-16T00:20:54;46.23;;;19.10;;
3849;SDS011;1940;51.052;13.678;2022-12-16T00:23:20;44.53;;;19.20;;
3849;SDS011;1940;51.052;13.678;2022-12-16T00:25:47;50.30;;;20.47;;
3849;SDS011;1940;51.052;13.678;2022-12-16T00:28:13;49.10;;;21.17;;
3849;SDS011;1940;51.052;13.678;2022-12-16T00:30:43;49.67;;;20.70;;
3849;SDS011;1940;51.052;13.678;2022-12-16T00:33:09;44.40;;;19.67;;
3849;SDS011;1940;51.052;13.678;2022-12-16T00:35:35;47.03;;;19.30;;
3849;SDS011;1940;51.052;13.678;2022-12-16T00:38:00;49.57;;;20.70;;
3849;SDS011;1940;51.052;13.678;2022-12-16T00:40:26;48.27;;;20.00;;
3849;SDS011;1940;51.052;13.678;2022-12-16T00:42:52;42.20;;;19.30;;
3849;SDS011;1940;51.052;13.678;2022-12-16T00:45:18;51.50;;;20.80;;
3849;SDS011;1940;51.052;13.678;2022-12-16T00:47:43;46.73;;;20.27;;
3849;SDS011;1940;51.052;13.678;2022-12-16T00:50:09;45.70;;;19.73;;
3849;SDS011;1940;51.052;13.678;2022-12-16T00:52:35;45.63;;;20.23;;
3849;SDS011;1940;51.052;13.678;2022-12-16T00:55:01;49.90;;;21.33;;
3849;SDS011;1940;51.052;13.678;2022-12-16T00:57:26;45.10;;;20.13;;
3849;SDS011;1940;51.052;13.678;2022-12-16T00:59:52;46.80;;;20.40;;
3849;SDS011;1940;51.052;13.678;2022-12-16T01:02:17;48.33;;;20.83;;
3849;SDS011;1940;51.052;13.678;2022-12-16T01:04:43;42.83;;;18.30;;
3849;SDS011;1940;51.052;13.678;2022-12-16T01:07:08;49.90;;;20.00;;
3849;SDS011;1940;51.052;13.678;2022-12-16T01:09:34;45.47;;;18.77;;
3849;SDS011;1940;51.052;13.678;2022-12-16T01:12:00;49.07;;;21.33;;
3849;SDS011;1940;51.052;13.678;2022-12-16T01:14:26;49.47;;;20.33;;
3849;SDS011;1940;51.052;13.678;2022-12-16T01:16:51;45.83;;;18.87;;
3849;SDS011;1940;51.052;13.678;2022-12-16T01:19:17;45.33;;;20.50;;
3849;SDS011;1940;51.052;13.678;2022-12-16T01:21:42;48.27;;;21.07;;
3849;SDS011;1940;51.052;13.678;2022-12-16T01:24:09;52.07;;;20.37;;
3849;SDS011;1940;51.052;13.678;2022-12-16T01:26:35;46.93;;;20.07;;
3849;SDS011;1940;51.052;13.678;2022-12-16T01:29:00;52.50;;;20.93;;
3849;SDS011;1940;51.052;13.678;2022-12-16T01:31:26;52.20;;;20.63;;
3849;SDS011;1940;51.052;13.678;2022-12-16T01:33:52;44.20;;;19.50;;
3849;SDS011;1940;51.052;13.678;2022-12-16T01:36:18;48.73;;;18.87;;
3849;SDS011;1940;51.052;13.678;2022-12-16T01:38:44;50.90;;;20.00;;
3849;SDS011;1940;51.052;13.678;2022-12-16T01:41:10;50.40;;;21.10;;
3849;SDS011;1940;51.052;13.678;2022-12-16T01:43:37;48.43;;;19.63;;
3849;SDS011;1940;51.052;13.678;2022-12-16T01:51:13;49.97;;;20.93;;
3849;SDS011;1940;51.052;13.678;2022-12-16T01:53:47;52.37;;;19.40;;
3849;SDS011;1940;51.052;13.678;2022-12-16T01:56:17;52.77;;;21.07;;
3849;SDS011;1940;51.052;13.678;2022-12-16T01:58:45;59.20;;;20.17;;
3849;SDS011;1940;51.052;13.678;2022-12-16T02:01:11;54.73;;;21.33;;
3849;SDS011;1940;51.052;13.678;2022-12-16T02:03:38;50.83;;;21.20;;
3849;SDS011;1940;51.052;13.678;2022-12-16T02:06:04;52.40;;;21.40;;
3849;SDS011;1940;51.052;13.678;2022-12-16T02:08:30;44.60;;;21.03;;
3849;SDS011;1940;51.052;13.678;2022-12-16T02:21:44;54.30;;;21.93;;
3849;SDS011;1940;51.052;13.678;2022-12-16T02:24:35;54.60;;;23.30;;
3849;SDS011;1940;51.052;13.678;2022-12-16T02:27:29;46.90;;;19.07;;
3849;SDS011;1940;51.052;13.678;2022-12-16T02:36:01;51.30;;;21.10;;
3849;SDS011;1940;51.052;13.678;2022-12-16T02:41:17;48.87;;;21.53;;
3849;SDS011;1940;51.052;13.678;2022-12-16T02:43:55;47.80;;;19.43;;
3849;SDS011;1940;51.052;13.678;2022-12-16T02:46:31;49.80;;;20.67;;
3849;SDS011;1940;51.052;13.678;2022-12-16T02:49:05;50.63;;;21.53;;
3849;SDS011;1940;51.052;13.678;2022-12-16T02:51:32;50.40;;;21.67;;
3849;SDS011;1940;51.052;13.678;2022-12-16T02:54:01;47.20;;;20.80;;
3849;SDS011;1940;51.052;13.678;2022-12-16T02:56:47;48.57;;;21.47;;
3849;SDS011;1940;51.052;13.678;2022-12-16T03:02:25;45.17;;;21.00;;
3849;SDS011;1940;51.052;13.678;2022-12-16T03:04:55;43.40;;;20.50;;
3849;SDS011;1940;51.052;13.678;2022-12-16T03:07:31;50.60;;;21.00;;
3849;SDS011;1940;51.052;13.678;2022-12-16T03:09:58;49.53;;;21.10;;
3849;SDS011;1940;51.052;13.678;2022-12-16T03:12:25;55.60;;;23.77;;
3849;SDS011;1940;51.052;13.678;2022-12-16T03:14:51;48.37;;;20.50;;
3849;SDS011;1940;51.052;13.678;2022-12-16T03:17:18;50.70;;;20.70;;
3849;SDS011;1940;51.052;13.678;2022-12-16T03:19:48;44.30;;;21.07;;
3849;SDS011;1940;51.052;13.678;2022-12-16T03:22:20;42.20;;;19.50;;
3849;SDS011;1940;51.052;13.678;2022-12-16T03:24:51;44.43;;;19.37;;
3849;SDS011;1940;51.052;13.678;2022-12-16T03:27:20;44.27;;;19.60;;
3849;SDS011;1940;51.052;13.678;2022-12-16T03:29:57;49.00;;;19.63;;
3849;SDS011;1940;51.052;13.678;2022-12-16T03:32:40;45.40;;;20.17;;
3849;SDS011;1940;51.052;13.678;2022-12-16T03:35:11;42.57;;;17.80;;
3849;SDS011;1940;51.052;13.678;2022-12-16T03:37:53;48.33;;;18.53;;
3849;SDS011;1940;51.052;13.678;2022-12-16T03:40:21;35.20;;;15.97;;
3849;SDS011;1940;51.052;13.678;2022-12-16T03:42:50;41.30;;;17.27;;
3849;SDS011;1940;51.052;13.678;2022-12-16T03:45:18;36.57;;;17.17;;
3849;SDS011;1940;51.052;13.678;2022-12-16T03:47:49;36.63;;;17.57;;
3849;SDS011;1940;51.052;13.678;2022-12-16T03:50:16;39.80;;;17.20;;
3849;SDS011;1940;51.052;13.678;2022-12-16T03:52:45;31.60;;;13.63;;
3849;SDS011;1940;51.052;13.678;2022-12-16T03:55:10;32.33;;;14.30;;
3849;SDS011;1940;51.052;13.678;2022-12-16T03:57:36;32.27;;;14.50;;
3849;SDS011;1940;51.052;13.678;2022-12-16T04:00:04;35.33;;;14.57;;
3849;SDS011;1940;51.052;13.678;2022-12-16T04:02:33;27.17;;;13.50;;
3849;SDS011;1940;51.052;13.678;2022-12-16T04:04:58;27.80;;;14.00;;
3849;SDS011;1940;51.052;13.678;2022-12-16T04:07:24;34.50;;;14.53;;
3849;SDS011;1940;51.052;13.678;2022-12-16T04:09:50;29.30;;;13.00;;
3849;SDS011;1940;51.052;13.678;2022-12-16T04:12:16;33.47;;;14.67;;
3849;SDS011;1940;51.052;13.678;2022-12-16T04:15:02;32.23;;;13.57;;
3849;SDS011;1940;51.052;13.678;2022-12-16T04:17:47;30.70;;;13.90;;
3849;SDS011;1940;51.052;13.678;2022-12-16T04:20:31;30.30;;;13.90;;
3849;SDS011;1940;51.052;13.678;2022-12-16T04:23:19;29.60;;;13.07;;
3849;SDS011;1940;51.052;13.678;2022-12-16T04:26:04;30.10;;;13.40;;
3849;SDS011;1940;51.052;13.678;2022-12-16T04:28:29;30.10;;;13.10;;
3849;SDS011;1940;51.052;13.678;2022-12-16T04:30:55;29.30;;;12.90;;
3849;SDS011;1940;51.052;13.678;2022-12-16T04:33:21;29.97;;;13.43;;
3849;SDS011;1940;51.052;13.678;2022-12-16T04:36:06;29.10;;;13.77;;
3849;SDS011;1940;51.052;13.678;2022-12-16T04:38:50;27.00;;;12.73;;
3849;SDS011;1940;51.052;13.678;2022-12-16T04:41:34;27.80;;;12.73;;
3849;SDS011;1940;51.052;13.678;2022-12-16T04:44:18;29.20;;;13.20;;
3849;SDS011;1940;51.052;13.678;2022-12-16T04:47:02;26.70;;;12.73;;
3849;SDS011;1940;51.052;13.678;2022-12-16T04:49:46;29.00;;;12.33;;
3849;SDS011;1940;51.052;13.678;2022-12-16T04:52:31;26.50;;;12.87;;
3849;SDS011;1940;51.052;13.678;2022-12-16T04:55:15;28.10;;;13.40;;
3849;SDS011;1940;51.052;13.678;2022-12-16T04:57:59;26.60;;;12.77;;
3849;SDS011;1940;51.052;13.678;2022-12-16T05:00:45;25.13;;;12.60;;
3849;SDS011;1940;51.052;13.678;2022-12-16T05:03:30;34.00;;;13.37;;
3849;SDS011;1940;51.052;13.678;2022-12-16T05:06:15;30.40;;;13.70;;
3849;SDS011;1940;51.052;13.678;2022-12-16T05:09:09;28.53;;;13.50;;
3849;SDS011;1940;51.052;13.678;2022-12-16T05:11:53;28.27;;;13.03;;
3849;SDS011;1940;51.052;13.678;2022-12-16T05:14:37;28.40;;;13.10;;
3849;SDS011;1940;51.052;13.678;2022-12-16T05:17:22;27.10;;;12.50;;
3849;SDS011;1940;51.052;13.678;2022-12-16T05:20:06;31.00;;;12.47;;
3849;SDS011;1940;51.052;13.678;2022-12-16T05:22:50;32.63;;;14.30;;
3849;SDS011;1940;51.052;13.678;2022-12-16T05:25:37;29.70;;;14.23;;
3849;SDS011;1940;51.052;13.678;2022-12-16T05:28:21;28.93;;;13.37;;
3849;SDS011;1940;51.052;13.678;2022-12-16T05:31:05;35.90;;;14.50;;
3849;SDS011;1940;51.052;13.678;2022-12-16T05:33:49;33.37;;;12.43;;
3849;SDS011;1940;51.052;13.678;2022-12-16T05:36:33;37.07;;;15.47;;
3849;SDS011;1940;51.052;13.678;2022-12-16T05:39:17;26.07;;;12.90;;
3849;SDS011;1940;51.052;13.678;2022-12-16T05:42:01;33.20;;;13.67;;
3849;SDS011;1940;51.052;13.678;2022-12-16T05:44:45;28.63;;;12.20;;
3849;SDS011;1940;51.052;13.678;2022-12-16T05:47:29;33.40;;;14.97;;
3849;SDS011;1940;51.052;13.678;2022-12-16T05:50:13;32.37;;;14.40;;
3849;SDS011;1940;51.052;13.678;2022-12-16T05:52:57;35.37;;;14.60;;
3849;SDS011;1940;51.052;13.678;2022-12-16T05:55:42;31.40;;;13.70;;
3849;SDS011;1940;51.052;13.678;2022-12-16T05:58:26;30.77;;;14.10;;
3849;SDS011;1940;51.052;13.678;2022-12-16T06:01:11;28.80;;;14.50;;
3849;SDS011;1940;51.052;13.678;2022-12-16T06:03:56;32.33;;;14.60;;
3849;SDS011;1940;51.052;13.678;2022-12-16T06:06:41;33.60;;;14.60;;
3849;SDS011;1940;51.052;13.678;2022-12-16T06:09:26;35.77;;;15.73;;
3849;SDS011;1940;51.052;13.678;2022-12-16T06:12:10;41.20;;;17.63;;
3849;SDS011;1940;51.052;13.678;2022-12-16T06:14:55;42.50;;;17.57;;
3849;SDS011;1940;51.052;13.678;2022-12-16T06:17:43;34.70;;;15.40;;
3849;SDS011;1940;51.052;13.678;2022-12-16T06:20:31;37.20;;;15.33;;
3849;SDS011;1940;51.052;13.678;2022-12-16T06:23:17;39.40;;;16.53;;
3849;SDS011;1940;51.052;13.678;2022-12-16T06:26:01;35.20;;;16.43;;
3849;SDS011;1940;51.052;13.678;2022-12-16T06:28:45;33.17;;;14.03;;
3849;SDS011;1940;51.052;13.678;2022-12-16T06:31:29;33.73;;;15.93;;
3849;SDS011;1940;51.052;13.678;2022-12-16T06:34:14;31.60;;;14.77;;
3849;SDS011;1940;51.052;13.678;2022-12-16T06:36:58;30.30;;;14.20;;
3849;SDS011;1940;51.052;13.678;2022-12-16T06:39:42;39.83;;;14.90;;
3849;SDS011;1940;51.052;13.678;2022-12-16T06:42:26;32.10;;;13.80;;
3849;SDS011;1940;51.052;13.678;2022-12-16T06:45:10;41.73;;;16.53;;
3849;SDS011;1940;51.052;13.678;2022-12-16T06:47:55;37.10;;;15.20;;
3849;SDS011;1940;51.052;13.678;2022-12-16T06:50:39;34.33;;;15.93;;
3849;SDS011;1940;51.052;13.678;2022-12-16T06:53:23;37.00;;;16.30;;
3849;SDS011;1940;51.052;13.678;2022-12-16T06:56:07;35.00;;;14.90;;
3849;SDS011;1940;51.052;13.678;2022-12-16T06:58:52;36.60;;;15.50;;
3849;SDS011;1940;51.052;13.678;2022-12-16T07:01:36;37.57;;;15.77;;
3849;SDS011;1940;51.052;13.678;2022-12-16T07:04:21;40.90;;;17.30;;
3849;SDS011;1940;51.052;13.678;2022-12-16T07:07:05;37.73;;;15.73;;
3849;SDS011;1940;51.052;13.678;2022-12-16T07:09:49;38.60;;;16.50;;
3849;SDS011;1940;51.052;13.678;2022-12-16T07:12:34;37.47;;;16.67;;
3849;SDS011;1940;51.052;13.678;2022-12-16T07:15:18;45.97;;;17.27;;
3849;SDS011;1940;51.052;13.678;2022-12-16T07:18:02;41.87;;;16.77;;
3849;SDS011;1940;51.052;13.678;2022-12-16T07:20:46;41.27;;;17.33;;
3849;SDS011;1940;51.052;13.678;2022-12-16T07:23:30;40.80;;;17.63;;
3849;SDS011;1940;51.052;13.678;2022-12-16T07:26:15;43.83;;;18.47;;
3849;SDS011;1940;51.052;13.678;2022-12-16T07:28:59;45.13;;;18.70;;
3849;SDS011;1940;51.052;13.678;2022-12-16T07:31:43;43.70;;;17.30;;
3849;SDS011;1940;51.052;13.678;2022-12-16T07:34:37;43.33;;;18.20;;
3849;SDS011;1940;51.052;13.678;2022-12-16T07:37:21;43.33;;;19.07;;
3849;SDS011;1940;51.052;13.678;2022-12-16T07:40:06;43.83;;;19.20;;
3849;SDS011;1940;51.052;13.678;2022-12-16T07:42:50;46.40;;;18.47;;
3849;SDS011;1940;51.052;13.678;2022-12-16T07:45:34;42.57;;;18.80;;
3849;SDS011;1940;51.052;13.678;2022-12-16T07:48:18;45.57;;;17.90;;
3849;SDS011;1940;51.052;13.678;2022-12-16T07:51:02;46.50;;;19.50;;
3849;SDS011;1940;51.052;13.678;2022-12-16T07:53:46;47.30;;;18.77;;
3849;SDS011;1940;51.052;13.678;2022-12-16T07:56:31;43.17;;;19.27;;
3849;SDS011;1940;51.052;13.678;2022-12-16T07:59:14;50.07;;;21.03;;
3849;SDS011;1940;51.052;13.678;2022-12-16T08:01:59;47.20;;;19.67;;
3849;SDS011;1940;51.052;13.678;2022-12-16T08:04:43;43.90;;;19.50;;
3849;SDS011;1940;51.052;13.678;2022-12-16T08:07:27;44.07;;;20.57;;
3849;SDS011;1940;51.052;13.678;2022-12-16T08:10:11;42.90;;;19.50;;
3849;SDS011;1940;51.052;13.678;2022-12-16T08:13:05;43.37;;;20.23;;
3849;SDS011;1940;51.052;13.678;2022-12-16T08:15:49;47.77;;;21.40;;
3849;SDS011;1940;51.052;13.678;2022-12-16T08:18:42;44.83;;;20.90;;
3849;SDS011;1940;51.052;13.678;2022-12-16T08:21:26;52.53;;;20.63;;
3849;SDS011;1940;51.052;13.678;2022-12-16T08:24:10;50.00;;;21.80;;
3849;SDS011;1940;51.052;13.678;2022-12-16T08:26:54;50.13;;;20.10;;
3849;SDS011;1940;51.052;13.678;2022-12-16T08:29:38;51.00;;;21.90;;
3849;SDS011;1940;51.052;13.678;2022-12-16T08:32:23;49.30;;;21.67;;
3849;SDS011;1940;51.052;13.678;2022-12-16T08:35:07;46.33;;;20.50;;
3849;SDS011;1940;51.052;13.678;2022-12-16T08:37:54;46.13;;;19.40;;
3849;SDS011;1940;51.052;13.678;2022-12-16T08:40:39;50.30;;;20.73;;
3849;SDS011;1940;51.052;13.678;2022-12-16T08:43:31;47.43;;;19.53;;
3849;SDS011;1940;51.052;13.678;2022-12-16T08:46:16;53.27;;;22.20;;
3849;SDS011;1940;51.052;13.678;2022-12-16T08:49:00;49.67;;;21.10;;
3849;SDS011;1940;51.052;13.678;2022-12-16T08:51:45;46.73;;;19.60;;
3849;SDS011;1940;51.052;13.678;2022-12-16T08:54:29;48.83;;;21.07;;
3849;SDS011;1940;51.052;13.678;2022-12-16T08:57:13;46.13;;;21.53;;
3849;SDS011;1940;51.052;13.678;2022-12-16T08:59:57;56.27;;;21.57;;
3849;SDS011;1940;51.052;13.678;2022-12-16T09:02:41;53.40;;;22.20;;
3849;SDS011;1940;51.052;13.678;2022-12-16T09:05:33;51.23;;;20.87;;
3849;SDS011;1940;51.052;13.678;2022-12-16T09:08:17;43.90;;;19.43;;
3849;SDS011;1940;51.052;13.678;2022-12-16T09:11:01;49.27;;;20.93;;
3849;SDS011;1940;51.052;13.678;2022-12-16T09:13:45;46.77;;;19.90;;
3849;SDS011;1940;51.052;13.678;2022-12-16T09:16:29;46.17;;;20.37;;
3849;SDS011;1940;51.052;13.678;2022-12-16T09:19:14;44.50;;;19.40;;
3849;SDS011;1940;51.052;13.678;2022-12-16T09:21:58;53.17;;;20.43;;
3849;SDS011;1940;51.052;13.678;2022-12-16T09:24:42;44.90;;;18.90;;
3849;SDS011;1940;51.052;13.678;2022-12-16T09:27:26;44.83;;;20.80;;
3849;SDS011;1940;51.052;13.678;2022-12-16T09:30:10;43.10;;;19.70;;
3849;SDS011;1940;51.052;13.678;2022-12-16T09:32:54;51.30;;;21.03;;
3849;SDS011;1940;51.052;13.678;2022-12-16T09:35:38;46.47;;;20.67;;
3849;SDS011;1940;51.052;13.678;2022-12-16T09:38:22;41.80;;;19.03;;
3849;SDS011;1940;51.052;13.678;2022-12-16T09:41:22;45.53;;;19.70;;
3849;SDS011;1940;51.052;13.678;2022-12-16T09:44:19;48.33;;;20.10;;
3849;SDS011;1940;51.052;13.678;2022-12-16T09:47:22;42.37;;;19.60;;
3849;SDS011;1940;51.052;13.678;2022-12-16T09:50:18;39.37;;;18.50;;
3849;SDS011;1940;51.052;13.678;2022-12-16T09:53:07;44.50;;;20.80;;
3849;SDS011;1940;51.052;13.678;2022-12-16T09:55:55;43.10;;;19.60;;
3849;SDS011;1940;51.052;13.678;2022-12-16T09:58:41;37.20;;;18.50;;
3849;SDS011;1940;51.052;13.678;2022-12-16T10:01:29;43.43;;;20.00;;
3849;SDS011;1940;51.052;13.678;2022-12-16T10:04:17;49.40;;;19.57;;
3849;SDS011;1940;51.052;13.678;2022-12-16T10:07:01;50.20;;;20.90;;
3849;SDS011;1940;51.052;13.678;2022-12-16T10:12:36;44.00;;;19.63;;
3849;SDS011;1940;51.052;13.678;2022-12-16T10:15:57;43.33;;;19.77;;
3849;SDS011;1940;51.052;13.678;2022-12-16T10:24:58;48.20;;;20.10;;
3849;SDS011;1940;51.052;13.678;2022-12-16T10:27:48;46.60;;;20.30;;
3849;SDS011;1940;51.052;13.678;2022-12-16T10:30:43;44.20;;;21.50;;
3849;SDS011;1940;51.052;13.678;2022-12-16T10:33:27;47.77;;;21.27;;
3849;SDS011;1940;51.052;13.678;2022-12-16T10:36:13;50.57;;;21.33;;
3849;SDS011;1940;51.052;13.678;2022-12-16T10:39:45;52.67;;;23.83;;
3849;SDS011;1940;51.052;13.678;2022-12-16T10:42:17;49.17;;;21.03;;
3849;SDS011;1940;51.052;13.678;2022-12-16T10:45:10;55.47;;;23.30;;
3849;SDS011;1940;51.052;13.678;2022-12-16T10:48:03;49.50;;;22.97;;
3849;SDS011;1940;51.052;13.678;2022-12-16T10:50:47;58.93;;;23.50;;
3849;SDS011;1940;51.052;13.678;2022-12-16T10:53:31;51.63;;;23.03;;
3849;SDS011;1940;51.052;13.678;2022-12-16T10:59:38;47.13;;;21.60;;
3849;SDS011;1940;51.052;13.678;2022-12-16T11:02:25;46.93;;;21.90;;
3849;SDS011;1940;51.052;13.678;2022-12-16T11:05:30;45.70;;;21.00;;
3849;SDS011;1940;51.052;13.678;2022-12-16T11:08:24;52.63;;;20.10;;
3849;SDS011;1940;51.052;13.678;2022-12-16T11:11:26;47.23;;;20.80;;
3849;SDS011;1940;51.052;13.678;2022-12-16T11:14:20;45.50;;;20.97;;
3849;SDS011;1940;51.052;13.678;2022-12-16T11:20:19;53.07;;;21.77;;
3849;SDS011;1940;51.052;13.678;2022-12-16T11:23:15;52.47;;;22.70;;
3849;SDS011;1940;51.052;13.678;2022-12-16T11:29:13;49.13;;;22.63;;
3849;SDS011;1940;51.052;13.678;2022-12-16T11:34:56;48.47;;;22.57;;
3849;SDS011;1940;51.052;13.678;2022-12-16T11:37:43;52.10;;;22.57;;
3849;SDS011;1940;51.052;13.678;2022-12-16T11:40:28;45.33;;;21.03;;
3849;SDS011;1940;51.052;13.678;2022-12-16T11:43:14;46.10;;;22.40;;
3849;SDS011;1940;51.052;13.678;2022-12-16T11:46:02;51.43;;;23.00;;
3849;SDS011;1940;51.052;13.678;2022-12-16T11:48:53;47.37;;;22.03;;
3849;SDS011;1940;51.052;13.678;2022-12-16T11:51:46;48.90;;;20.90;;
3849;SDS011;1940;51.052;13.678;2022-12-16T11:54:37;49.33;;;22.07;;
3849;SDS011;1940;51.052;13.678;2022-12-16T11:57:38;54.90;;;23.57;;
3849;SDS011;1940;51.052;13.678;2022-12-16T12:00:28;49.60;;;22.10;;
3849;SDS011;1940;51.052;13.678;2022-12-16T12:03:15;50.27;;;21.87;;
3849;SDS011;1940;51.052;13.678;2022-12-16T12:09:12;48.83;;;20.23;;
3849;SDS011;1940;51.052;13.678;2022-12-16T12:15:54;53.13;;;21.27;;
3849;SDS011;1940;51.052;13.678;2022-12-16T12:21:37;47.80;;;22.87;;
3849;SDS011;1940;51.052;13.678;2022-12-16T12:27:50;52.40;;;22.13;;
3849;SDS011;1940;51.052;13.678;2022-12-16T12:30:48;52.33;;;23.50;;
3849;SDS011;1940;51.052;13.678;2022-12-16T12:34:04;44.60;;;21.37;;
3849;SDS011;1940;51.052;13.678;2022-12-16T12:37:01;49.20;;;21.73;;
3849;SDS011;1940;51.052;13.678;2022-12-16T12:39:54;48.67;;;21.07;;
3849;SDS011;1940;51.052;13.678;2022-12-16T12:42:54;53.80;;;22.53;;
3849;SDS011;1940;51.052;13.678;2022-12-16T12:51:50;46.37;;;22.83;;
3849;SDS011;1940;51.052;13.678;2022-12-16T12:58:08;56.97;;;23.40;;
3849;SDS011;1940;51.052;13.678;2022-12-16T13:00:54;56.33;;;22.20;;
3849;SDS011;1940;51.052;13.678;2022-12-16T13:03:59;46.47;;;21.60;;
3849;SDS011;1940;51.052;13.678;2022-12-16T13:06:48;45.90;;;20.73;;
3849;SDS011;1940;51.052;13.678;2022-12-16T13:09:37;48.70;;;21.50;;
3849;SDS011;1940;51.052;13.678;2022-12-16T13:12:26;52.90;;;22.27;;
3849;SDS011;1940;51.052;13.678;2022-12-16T13:15:34;51.93;;;22.30;;
3849;SDS011;1940;51.052;13.678;2022-12-16T13:18:27;42.57;;;20.43;;
3849;SDS011;1940;51.052;13.678;2022-12-16T13:24:28;50.83;;;21.40;;
3849;SDS011;1940;51.052;13.678;2022-12-16T13:27:22;48.30;;;22.23;;
3849;SDS011;1940;51.052;13.678;2022-12-16T13:32:55;50.10;;;20.77;;
3849;SDS011;1940;51.052;13.678;2022-12-16T13:35:53;48.03;;;21.07;;
3849;SDS011;1940;51.052;13.678;2022-12-16T13:38:45;50.37;;;22.07;;
3849;SDS011;1940;51.052;13.678;2022-12-16T13:47:32;52.77;;;22.10;;
3849;SDS011;1940;51.052;13.678;2022-12-16T13:50:36;57.03;;;22.30;;
3849;SDS011;1940;51.052;13.678;2022-12-16T13:53:47;48.00;;;20.50;;
3849;SDS011;1940;51.052;13.678;2022-12-16T13:56:36;46.17;;;19.80;;
3849;SDS011;1940;51.052;13.678;2022-12-16T13:59:29;45.37;;;20.50;;
3849;SDS011;1940;51.052;13.678;2022-12-16T14:05:19;51.27;;;21.47;;
3849;SDS011;1940;51.052;13.678;2022-12-16T14:08:15;48.53;;;22.23;;
3849;SDS011;1940;51.052;13.678;2022-12-16T14:11:02;52.63;;;22.83;;
3849;SDS011;1940;51.052;13.678;2022-12-16T14:13:59;49.43;;;22.17;;
3849;SDS011;1940;51.052;13.678;2022-12-16T14:17:09;43.67;;;20.53;;
3849;SDS011;1940;51.052;13.678;2022-12-16T14:20:12;47.43;;;21.93;;
3849;SDS011;1940;51.052;13.678;2022-12-16T14:23:23;45.20;;;19.97;;
3849;SDS011;1940;51.052;13.678;2022-12-16T14:26:14;48.27;;;20.47;;
3849;SDS011;1940;51.052;13.678;2022-12-16T14:28:59;47.67;;;20.73;;
3849;SDS011;1940;51.052;13.678;2022-12-16T14:31:44;53.03;;;23.57;;
3849;SDS011;1940;51.052;13.678;2022-12-16T14:34:33;56.07;;;24.40;;
3849;SDS011;1940;51.052;13.678;2022-12-16T14:37:32;50.90;;;22.33;;
3849;SDS011;1940;51.052;13.678;2022-12-16T14:43:01;50.60;;;21.67;;
3849;SDS011;1940;51.052;13.678;2022-12-16T14:45:47;49.87;;;22.83;;
3849;SDS011;1940;51.052;13.678;2022-12-16T14:51:22;47.17;;;21.57;;
3849;SDS011;1940;51.052;13.678;2022-12-16T14:54:21;45.60;;;21.43;;
3849;SDS011;1940;51.052;13.678;2022-12-16T14:57:14;48.33;;;21.87;;
3849;SDS011;1940;51.052;13.678;2022-12-16T15:00:08;48.40;;;21.30;;
3849;SDS011;1940;51.052;13.678;2022-12-16T15:02:59;49.47;;;22.70;;
3849;SDS011;1940;51.052;13.678;2022-12-16T15:05:48;46.63;;;21.43;;
3849;SDS011;1940;51.052;13.678;2022-12-16T15:08:34;49.60;;;22.67;;
3849;SDS011;1940;51.052;13.678;2022-12-16T15:11:24;51.43;;;23.43;;
3849;SDS011;1940;51.052;13.678;2022-12-16T15:14:10;61.83;;;24.60;;
3849;SDS011;1940;51.052;13.678;2022-12-16T15:16:59;51.60;;;24.03;;
3849;SDS011;1940;51.052;13.678;2022-12-16T15:19:45;52.20;;;22.10;;
3849;SDS011;1940;51.052;13.678;2022-12-16T15:22:32;60.03;;;22.33;;
3849;SDS011;1940;51.052;13.678;2022-12-16T15:25:21;55.03;;;24.70;;
3849;SDS011;1940;51.052;13.678;2022-12-16T15:28:23;56.20;;;23.57;;
3849;SDS011;1940;51.052;13.678;2022-12-16T15:31:14;53.10;;;23.97;;
3849;SDS011;1940;51.052;13.678;2022-12-16T15:34:22;55.50;;;23.20;;
3849;SDS011;1940;51.052;13.678;2022-12-16T15:37:46;48.60;;;21.70;;
3849;SDS011;1940;51.052;13.678;2022-12-16T15:40:31;57.53;;;26.87;;
3849;SDS011;1940;51.052;13.678;2022-12-16T15:43:30;59.77;;;25.67;;
3849;SDS011;1940;51.052;13.678;2022-12-16T15:46:22;53.10;;;25.10;;
3849;SDS011;1940;51.052;13.678;2022-12-16T15:49:21;51.73;;;23.87;;
3849;SDS011;1940;51.052;13.678;2022-12-16T16:01:05;48.83;;;22.73;;
3849;SDS011;1940;51.052;13.678;2022-12-16T16:03:51;57.47;;;23.80;;
3849;SDS011;1940;51.052;13.678;2022-12-16T16:06:37;81.50;;;23.77;;
3849;SDS011;1940;51.052;13.678;2022-12-16T16:09:27;53.13;;;22.93;;
3849;SDS011;1940;51.052;13.678;2022-12-16T16:12:14;56.00;;;24.07;;
3849;SDS011;1940;51.052;13.678;2022-12-16T16:15:19;51.83;;;22.90;;
3849;SDS011;1940;51.052;13.678;2022-12-16T16:18:03;49.63;;;21.90;;
3849;SDS011;1940;51.052;13.678;2022-12-16T16:20:49;59.20;;;24.83;;
3849;SDS011;1940;51.052;13.678;2022-12-16T16:23:34;54.47;;;23.00;;
3849;SDS011;1940;51.052;13.678;2022-12-16T16:26:19;48.80;;;22.03;;
3849;SDS011;1940;51.052;13.678;2022-12-16T16:29:05;58.67;;;23.50;;
3849;SDS011;1940;51.052;13.678;2022-12-16T16:31:49;48.23;;;21.97;;
3849;SDS011;1940;51.052;13.678;2022-12-16T16:34:34;52.57;;;23.07;;
3849;SDS011;1940;51.052;13.678;2022-12-16T16:37:19;55.10;;;23.13;;
3849;SDS011;1940;51.052;13.678;2022-12-16T16:43:04;48.80;;;22.33;;
3849;SDS011;1940;51.052;13.678;2022-12-16T16:45:51;51.23;;;22.30;;
3849;SDS011;1940;51.052;13.678;2022-12-16T16:48:37;55.40;;;22.73;;
3849;SDS011;1940;51.052;13.678;2022-12-16T16:51:21;49.57;;;22.63;;
3849;SDS011;1940;51.052;13.678;2022-12-16T16:54:05;47.57;;;22.43;;
3849;SDS011;1940;51.052;13.678;2022-12-16T16:56:49;50.23;;;23.20;;
3849;SDS011;1940;51.052;13.678;2022-12-16T16:59:34;49.33;;;22.00;;
3849;SDS011;1940;51.052;13.678;2022-12-16T17:02:19;55.47;;;23.47;;
3849;SDS011;1940;51.052;13.678;2022-12-16T17:05:05;53.00;;;22.33;;
3849;SDS011;1940;51.052;13.678;2022-12-16T17:07:49;46.30;;;22.73;;
3849;SDS011;1940;51.052;13.678;2022-12-16T17:10:33;45.13;;;21.17;;
3849;SDS011;1940;51.052;13.678;2022-12-16T17:13:17;51.70;;;22.50;;
3849;SDS011;1940;51.052;13.678;2022-12-16T17:16:01;48.53;;;21.77;;
3849;SDS011;1940;51.052;13.678;2022-12-16T17:18:46;55.57;;;23.53;;
3849;SDS011;1940;51.052;13.678;2022-12-16T17:21:33;51.50;;;22.63;;
3849;SDS011;1940;51.052;13.678;2022-12-16T17:24:18;52.50;;;22.77;;
3849;SDS011;1940;51.052;13.678;2022-12-16T17:27:06;48.23;;;22.80;;
3849;SDS011;1940;51.052;13.678;2022-12-16T17:29:57;56.90;;;24.67;;
3849;SDS011;1940;51.052;13.678;2022-12-16T17:32:41;56.63;;;23.73;;
3849;SDS011;1940;51.052;13.678;2022-12-16T17:35:25;52.23;;;21.70;;
3849;SDS011;1940;51.052;13.678;2022-12-16T17:38:10;51.93;;;22.63;;
3849;SDS011;1940;51.052;13.678;2022-12-16T17:40:54;56.47;;;25.30;;
3849;SDS011;1940;51.052;13.678;2022-12-16T17:43:38;55.47;;;23.07;;
3849;SDS011;1940;51.052;13.678;2022-12-16T17:46:22;58.30;;;23.70;;
3849;SDS011;1940;51.052;13.678;2022-12-16T17:49:08;56.13;;;24.23;;
3849;SDS011;1940;51.052;13.678;2022-12-16T17:51:52;55.80;;;23.93;;